Time;durP1;ratioP1;P1;durP2;ratioP2;P2;SDS_P1;SDS_P2;PMS_P1;PMS_P2;Temp;Humidity;BMP_temperature;BMP_pressure;BME280_temperature;BME280_humidity;BME280_pressure;Samples;Min_cycle;Max_cycle;Signal;HPM_P1;HPM_P2
2021/09/15 00:01:02;;;;;;;15.25;7.20;;;18.10;99.90;;;;;;20608779;28;20047;-81
2021/09/15 00:11:03;;;;;;;25.63;10.98;;;18.00;99.90;;;;;;20630198;28;20093;-81
2021/09/15 00:21:05;;;;;;;19.10;9.07;;;17.90;99.90;;;;;;20683470;28;20042;-81
2021/09/15 00:31:06;;;;;;;26.00;9.27;;;17.90;99.90;;;;;;20609271;28;20157;-81
2021/09/15 00:41:07;;;;;;;22.88;10.43;;;17.80;99.90;;;;;;20638479;28;20423;-81
2021/09/15 00:51:08;;;;;;;21.85;9.30;;;17.70;99.90;;;;;;20640829;28;20070;-81
2021/09/15 01:01:09;;;;;;;17.70;7.75;;;17.70;99.90;;;;;;20636412;28;20062;-79
2021/09/15 01:11:11;;;;;;;22.45;10.30;;;17.60;99.90;;;;;;20619008;28;20499;-79
2021/09/15 01:21:12;;;;;;;26.08;11.13;;;17.70;99.90;;;;;;20587607;28;20058;-79
2021/09/15 01:31:14;;;;;;;25.42;11.00;;;17.70;99.90;;;;;;20640767;28;20041;-79
2021/09/15 01:41:15;;;;;;;28.05;10.57;;;17.80;99.90;;;;;;20601143;28;20106;-79
2021/09/15 01:51:16;;;;;;;26.23;11.23;;;17.80;99.90;;;;;;20571335;28;20081;-79
2021/09/15 02:01:17;;;;;;;20.00;8.32;;;17.80;99.90;;;;;;20557544;28;20054;-79
2021/09/15 02:11:18;;;;;;;19.45;9.07;;;17.80;99.90;;;;;;20587904;28;20057;-79
2021/09/15 02:21:20;;;;;;;19.05;9.38;;;17.70;99.90;;;;;;20540160;28;20051;-79
2021/09/15 02:31:21;;;;;;;16.50;7.75;;;17.50;99.90;;;;;;20607248;28;20065;-79
2021/09/15 02:41:22;;;;;;;18.15;8.93;;;17.40;99.90;;;;;;20633654;28;20078;-79
2021/09/15 02:51:23;;;;;;;18.42;7.93;;;17.40;99.90;;;;;;20645804;28;20047;-79
2021/09/15 03:01:24;;;;;;;14.40;6.90;;;17.30;99.90;;;;;;20679185;28;20058;-79
2021/09/15 03:11:25;;;;;;;19.67;8.38;;;17.30;99.90;;;;;;20662711;28;20046;-79
2021/09/15 03:21:27;;;;;;;14.70;7.30;;;17.30;99.90;;;;;;20613465;28;20050;-79
2021/09/15 03:31:29;;;;;;;19.38;7.43;;;17.40;99.90;;;;;;20621229;28;20051;-79
2021/09/15 03:41:31;;;;;;;16.52;7.07;;;17.40;99.90;;;;;;20657529;28;20446;-79
2021/09/15 03:51:32;;;;;;;14.60;6.18;;;17.40;99.90;;;;;;20647560;28;20066;-79
2021/09/15 04:01:33;;;;;;;15.10;7.07;;;17.40;99.90;;;;;;20672092;28;20049;-79
2021/09/15 04:11:35;;;;;;;15.25;7.70;;;17.40;99.90;;;;;;20625780;28;20050;-79
2021/09/15 04:21:36;;;;;;;12.70;6.78;;;17.40;99.90;;;;;;20645183;28;20047;-79
2021/09/15 04:31:37;;;;;;;15.77;7.20;;;17.40;99.90;;;;;;20649617;28;20065;-79
2021/09/15 04:41:38;;;;;;;12.43;6.40;;;17.40;99.90;;;;;;20693182;28;20055;-79
2021/09/15 04:51:39;;;;;;;14.20;6.80;;;17.30;99.90;;;;;;20693950;28;20055;-79
2021/09/15 05:01:40;;;;;;;15.90;7.20;;;17.40;99.90;;;;;;20703983;28;20045;-79
2021/09/15 05:11:41;;;;;;;15.27;7.45;;;17.50;99.90;;;;;;20649572;28;20054;-79
2021/09/15 05:21:42;;;;;;;12.75;5.72;;;17.50;99.90;;;;;;20683290;28;20056;-79
2021/09/15 05:31:43;;;;;;;11.77;6.90;;;17.60;99.90;;;;;;20673529;28;20041;-79
2021/09/15 05:41:44;;;;;;;17.15;7.13;;;17.60;99.90;;;;;;20657140;28;20041;-79
2021/09/15 05:51:45;;;;;;;18.00;6.90;;;17.50;99.90;;;;;;20692036;28;20061;-79
2021/09/15 06:01:47;;;;;;;21.55;8.88;;;17.60;99.90;;;;;;20657224;28;20493;-79
2021/09/15 06:11:48;;;;;;;17.65;8.20;;;17.70;99.90;;;;;;20640845;28;20164;-79
2021/09/15 06:21:49;;;;;;;20.35;8.30;;;17.70;99.90;;;;;;20648602;28;20510;-79
2021/09/15 06:31:50;;;;;;;19.65;7.72;;;17.70;99.90;;;;;;20658824;28;20059;-79
2021/09/15 06:41:51;;;;;;;25.48;8.85;;;17.70;99.90;;;;;;20612773;28;20055;-79
2021/09/15 06:51:53;;;;;;;22.40;8.95;;;17.70;99.90;;;;;;20638506;28;20050;-79
2021/09/15 07:01:54;;;;;;;25.85;9.40;;;17.70;99.90;;;;;;20608395;28;20047;-79
2021/09/15 07:11:56;;;;;;;29.80;9.82;;;17.70;99.90;;;;;;20599956;28;20051;-79
2021/09/15 07:21:57;;;;;;;28.42;11.27;;;17.70;99.90;;;;;;20578556;28;20050;-79
2021/09/15 07:31:58;;;;;;;26.25;10.40;;;17.70;99.90;;;;;;20631439;28;20053;-80
2021/09/15 07:41:59;;;;;;;29.50;9.95;;;17.70;99.90;;;;;;20679053;28;20057;-79
2021/09/15 07:52:01;;;;;;;30.58;10.90;;;17.70;99.90;;;;;;20660519;28;20045;-79
2021/09/15 08:02:02;;;;;;;20.75;7.95;;;17.70;99.90;;;;;;20619640;28;20046;-79
2021/09/15 08:12:04;;;;;;;27.88;11.48;;;17.80;99.90;;;;;;20686656;28;20417;-79
2021/09/15 08:22:05;;;;;;;24.48;8.52;;;17.80;99.90;;;;;;20661383;28;20501;-79
2021/09/15 08:32:07;;;;;;;26.17;10.68;;;17.90;99.90;;;;;;20641972;28;20057;-79
2021/09/15 08:42:10;;;;;;;31.30;11.25;;;18.10;99.90;;;;;;20534469;28;21077;-78
2021/09/15 08:52:11;;;;;;;18.73;7.95;;;18.40;99.90;;;;;;20546937;28;20049;-79
2021/09/15 09:02:15;;;;;;;13.48;5.22;;;18.30;99.90;;;;;;20542106;28;20096;-80
2021/09/15 09:12:18;;;;;;;11.00;4.28;;;18.20;99.90;;;;;;20535935;28;20051;-79
2021/09/15 09:22:19;;;;;;;10.05;4.38;;;18.10;99.90;;;;;;20584527;28;20053;-79
2021/09/15 09:32:21;;;;;;;10.45;4.90;;;18.00;99.90;;;;;;20539906;28;20070;-79
2021/09/15 09:42:22;;;;;;;9.57;4.03;;;17.90;99.90;;;;;;20537311;28;20052;-79
2021/09/15 09:52:23;;;;;;;9.77;3.75;;;18.00;99.90;;;;;;20558384;28;20437;-79
2021/09/15 10:02:24;;;;;;;9.55;3.60;;;18.20;99.90;;;;;;20543201;28;20047;-79
2021/09/15 10:12:26;;;;;;;35.72;7.38;;;18.60;99.90;;;;;;20552993;28;20063;-79
2021/09/15 10:22:31;;;;;;;6.15;2.75;;;18.80;99.90;;;;;;20571238;28;20053;-79
2021/09/15 10:32:34;;;;;;;3.90;1.55;;;18.70;99.90;;;;;;20568384;28;20089;-79
2021/09/15 10:42:47;;;;;;;3.50;1.73;;;18.40;99.90;;;;;;20538250;28;20050;-79
2021/09/15 10:52:48;;;;;;;5.95;2.50;;;18.50;99.90;;;;;;20598843;28;20737;-80
2021/09/15 11:02:50;;;;;;;3.63;0.80;;;18.60;99.90;;;;;;20534961;28;20038;-79
2021/09/15 11:12:51;;;;;;;7.72;1.10;;;18.80;99.90;;;;;;20603058;28;20073;-79
2021/09/15 11:22:53;;;;;;;1.58;0.70;;;18.80;99.90;;;;;;20565722;28;20050;-79
2021/09/15 11:32:55;;;;;;;2.13;1.13;;;18.80;99.90;;;;;;20559038;28;20551;-79
2021/09/15 11:43:00;;;;;;;3.63;1.00;;;18.90;99.90;;;;;;20559122;28;20066;-79
2021/09/15 11:53:09;;;;;;;2.50;0.90;;;18.90;99.90;;;;;;20597391;28;20062;-79
2021/09/15 12:03:12;;;;;;;3.42;1.17;;;18.80;99.90;;;;;;20551142;28;20367;-79
2021/09/15 12:13:14;;;;;;;2.83;1.10;;;18.70;99.90;;;;;;20603329;28;20055;-79
2021/09/15 12:23:17;;;;;;;2.90;1.30;;;18.70;99.90;;;;;;20570604;28;20995;-79
2021/09/15 12:33:28;;;;;;;4.50;1.70;;;18.70;99.90;;;;;;20569865;28;20063;-79
2021/09/15 12:43:31;;;;;;;4.07;1.95;;;18.80;99.90;;;;;;20555825;28;20042;-79
2021/09/15 12:53:45;;;;;;;2.88;1.48;;;18.90;99.90;;;;;;20558590;28;20047;-79
2021/09/15 13:03:49;;;;;;;7.05;1.80;;;18.80;99.90;;;;;;20543855;28;20035;-79
2021/09/15 13:13:50;;;;;;;3.65;1.40;;;18.80;99.90;;;;;;20559442;28;20483;-79
2021/09/15 13:23:51;;;;;;;4.30;2.00;;;19.20;99.90;;;;;;20577820;28;20026;-79
2021/09/15 13:33:52;;;;;;;6.40;2.95;;;19.60;99.90;;;;;;20545912;28;20503;-79
2021/09/15 13:43:54;;;;;;;9.85;3.40;;;19.40;99.90;;;;;;20668466;28;20063;-79
2021/09/15 13:53:55;;;;;;;5.97;2.83;;;19.10;99.90;;;;;;20566225;28;20073;-79
2021/09/15 14:03:56;;;;;;;6.53;2.50;;;19.00;99.90;;;;;;20571710;28;20047;-79
2021/09/15 14:13:57;;;;;;;1.88;0.60;;;18.90;99.90;;;;;;20582306;28;20068;-79
2021/09/15 14:23:58;;;;;;;2.75;1.30;;;18.70;99.90;;;;;;20528823;28;20039;-79
2021/09/15 14:34:00;;;;;;;0.98;0.45;;;18.60;99.90;;;;;;20600836;28;20054;-79
2021/09/15 14:44:01;;;;;;;1.13;0.30;;;18.60;99.90;;;;;;20597126;28;20156;-79
2021/09/15 14:54:02;;;;;;;3.00;1.38;;;18.70;99.90;;;;;;20547905;28;20116;-79
2021/09/15 15:04:03;;;;;;;1.55;0.47;;;18.70;99.90;;;;;;20611682;28;20135;-78
2021/09/15 15:14:04;;;;;;;1.80;0.65;;;18.50;99.90;;;;;;20655375;28;20134;-79
2021/09/15 15:24:06;;;;;;;1.88;0.30;;;18.60;99.90;;;;;;20634477;28;20050;-79
2021/09/15 15:34:07;;;;;;;1.55;0.40;;;18.50;99.90;;;;;;20636058;28;20077;-79
2021/09/15 15:44:11;;;;;;;0.57;0.20;;;18.40;99.90;;;;;;20656661;28;20058;-79
2021/09/15 15:54:12;;;;;;;1.02;0.30;;;18.30;99.90;;;;;;20667118;28;20053;-79
2021/09/15 16:04:13;;;;;;;1.48;0.40;;;18.30;99.90;;;;;;20674320;28;20056;-79
2021/09/15 16:14:15;;;;;;;1.55;0.50;;;18.20;99.90;;;;;;20636103;28;20467;-79
2021/09/15 16:24:16;;;;;;;3.65;0.57;;;18.20;99.90;;;;;;20627028;28;20054;-80
2021/09/15 16:34:18;;;;;;;0.57;0.30;;;18.00;99.90;;;;;;20635556;28;20057;-79
2021/09/15 16:44:19;;;;;;;0.82;0.40;;;17.90;99.90;;;;;;20708255;28;20062;-79
2021/09/15 16:54:20;;;;;;;0.90;0.30;;;17.80;99.90;;;;;;20619144;28;20058;-79
2021/09/15 17:04:21;;;;;;;2.45;0.70;;;17.70;99.90;;;;;;20675566;28;20038;-79
2021/09/15 17:14:22;;;;;;;1.85;0.95;;;17.70;99.90;;;;;;20648448;28;20047;-79
2021/09/15 17:24:25;;;;;;;0.93;0.20;;;17.50;99.90;;;;;;20633491;28;20135;-82
2021/09/15 17:34:27;;;;;;;1.00;0.30;;;17.40;99.90;;;;;;20645894;28;20061;-82
2021/09/15 17:44:28;;;;;;;2.25;0.20;;;17.20;99.90;;;;;;20646642;28;20046;-79
2021/09/15 17:54:29;;;;;;;1.38;0.40;;;17.10;99.90;;;;;;20635614;28;20525;-79
2021/09/15 18:04:30;;;;;;;0.57;0.20;;;17.00;99.90;;;;;;20620463;28;20409;-79
2021/09/15 18:14:31;;;;;;;1.48;0.15;;;17.00;99.90;;;;;;20651124;28;20068;-79
2021/09/15 18:24:33;;;;;;;0.60;0.20;;;16.90;99.90;;;;;;20620169;28;20057;-79
2021/09/15 18:34:34;;;;;;;1.45;0.20;;;16.80;99.90;;;;;;20643392;28;20051;-80
2021/09/15 18:44:35;;;;;;;3.65;0.73;;;16.80;99.90;;;;;;20665507;28;20509;-79
2021/09/15 18:54:36;;;;;;;2.83;0.47;;;16.70;99.90;;;;;;20641987;28;20081;-79
2021/09/15 19:04:37;;;;;;;1.00;0.15;;;16.60;99.90;;;;;;20671194;28;20034;-79
2021/09/15 19:14:38;;;;;;;0.70;0.40;;;16.60;99.90;;;;;;20691341;28;20041;-79
2021/09/15 19:24:40;;;;;;;2.45;0.35;;;16.60;99.90;;;;;;20697650;28;20053;-79
2021/09/15 19:34:41;;;;;;;2.00;0.52;;;16.50;99.90;;;;;;20710326;28;20046;-79
2021/09/15 19:44:43;;;;;;;0.28;0.20;;;16.50;99.90;;;;;;20688535;28;20398;-79
2021/09/15 19:54:45;;;;;;;2.35;0.32;;;16.50;99.90;;;;;;20660391;28;20046;-79
2021/09/15 20:04:46;;;;;;;6.03;0.30;;;16.50;99.90;;;;;;20659888;28;20038;-79
2021/09/15 20:14:48;;;;;;;1.17;0.20;;;16.40;99.90;;;;;;20669967;28;20093;-79
2021/09/15 20:24:49;;;;;;;0.88;0.20;;;16.20;99.90;;;;;;20656626;28;20069;-80
2021/09/15 20:34:50;;;;;;;2.40;0.32;;;16.10;99.90;;;;;;20682882;28;20061;-79
2021/09/15 20:44:51;;;;;;;0.55;0.15;;;16.00;99.90;;;;;;20692420;28;20061;-79
2021/09/15 20:54:52;;;;;;;1.48;0.10;;;16.00;99.90;;;;;;20664455;28;20057;-80
2021/09/15 21:04:53;;;;;;;0.75;0.20;;;15.90;99.90;;;;;;20648558;28;20034;-79
2021/09/15 21:14:54;;;;;;;3.05;0.30;;;15.90;99.90;;;;;;20657940;28;20053;-80
2021/09/15 21:24:55;;;;;;;3.47;0.20;;;15.70;99.90;;;;;;20641502;28;20052;-80
2021/09/15 21:34:59;;;;;;;5.28;0.30;;;15.60;99.90;;;;;;20686175;28;20071;-79
2021/09/15 21:45:02;;;;;;;1.33;0.50;;;15.50;99.90;;;;;;20639806;28;20716;-79
2021/09/15 21:55:03;;;;;;;0.57;0.30;;;15.40;99.90;;;;;;20627662;28;20066;-80
2021/09/15 22:05:06;;;;;;;1.63;0.30;;;15.50;99.90;;;;;;20655453;28;20814;-79
2021/09/15 22:15:08;;;;;;;7.07;0.60;;;15.40;99.90;;;;;;20660037;28;20033;-80
2021/09/15 22:25:11;;;;;;;2.10;0.22;;;15.40;99.90;;;;;;20654528;28;20532;-79
2021/09/15 22:35:15;;;;;;;2.03;0.25;;;15.40;99.90;;;;;;20625675;28;20120;-79
2021/09/15 22:45:16;;;;;;;0.55;0.10;;;15.30;99.90;;;;;;20651802;28;20631;-80
2021/09/15 22:55:17;;;;;;;0.40;0.20;;;15.30;99.90;;;;;;20669538;28;20055;-80
2021/09/15 23:05:18;;;;;;;0.38;0.10;;;15.30;99.90;;;;;;20641920;28;20048;-80
2021/09/15 23:15:19;;;;;;;1.08;0.50;;;15.20;99.90;;;;;;20619442;28;20068;-80
2021/09/15 23:25:21;;;;;;;4.43;0.40;;;15.30;99.90;;;;;;20661535;28;20040;-80
2021/09/15 23:35:22;;;;;;;4.93;0.60;;;15.30;99.90;;;;;;20665697;28;20109;-80
2021/09/15 23:45:23;;;;;;;2.25;0.32;;;15.40;99.90;;;;;;20570899;28;20035;-80
2021/09/15 23:55:24;;;;;;;0.40;0.10;;;15.40;99.90;;;;;;20572936;28;20069;-80
